Time;durP1;ratioP1;P1;durP2;ratioP2;P2;SDS_P1;SDS_P2;PMS_P1;PMS_P2;Temp;Humidity;BMP_temperature;BMP_pressure;BME280_temperature;BME280_humidity;BME280_pressure;Samples;Min_cycle;Max_cycle;Signal;HPM_P1;HPM_P2
2023/06/23 00:00:11;;;;;;;20.95;16.27;;;16.50;99.90;;;;;;5096873;28;20096;-71
2023/06/23 00:02:38;;;;;;;20.52;15.20;;;16.50;99.90;;;;;;5096880;28;20488;-70
2023/06/23 00:05:05;;;;;;;18.38;15.02;;;16.50;99.90;;;;;;5096736;28;20020;-71
2023/06/23 00:07:31;;;;;;;19.48;13.80;;;16.40;99.90;;;;;;5096824;28;20397;-71
2023/06/23 00:09:56;;;;;;;18.35;13.00;;;16.40;99.90;;;;;;5097795;28;20044;-77
2023/06/23 00:12:24;;;;;;;17.25;13.30;;;16.40;99.90;;;;;;5101264;28;20028;-77
2023/06/23 00:14:49;;;;;;;16.40;13.48;;;16.50;99.90;;;;;;5100521;28;20074;-78
2023/06/23 00:17:15;;;;;;;16.20;13.35;;;16.40;99.90;;;;;;5101020;28;20024;-78
2023/06/23 00:19:41;;;;;;;18.60;12.40;;;16.50;99.90;;;;;;5100904;28;20053;-77
2023/06/23 00:22:08;;;;;;;14.43;12.00;;;;;;;;;;5100244;28;20051;-77
2023/06/23 00:24:33;;;;;;;15.70;11.23;;;16.30;99.90;;;;;;5100477;28;20089;-77
2023/06/23 00:27:00;;;;;;;14.18;11.63;;;16.30;99.90;;;;;;5100748;28;20028;-77
2023/06/23 00:29:26;;;;;;;17.90;12.48;;;16.30;99.90;;;;;;5099926;28;20020;-78
2023/06/23 00:31:53;;;;;;;17.85;12.73;;;;;;;;;;5100349;28;20031;-77
2023/06/23 00:34:19;;;;;;;15.50;12.02;;;;;;;;;;5100878;28;20064;-77
2023/06/23 00:36:45;;;;;;;15.88;12.45;;;16.20;99.90;;;;;;5100909;28;20031;-79
2023/06/23 00:39:11;;;;;;;16.15;12.27;;;16.00;99.90;;;;;;5101141;28;20032;-79
2023/06/23 00:41:36;;;;;;;14.30;12.40;;;16.00;99.90;;;;;;5100585;28;20046;-78
2023/06/23 00:44:05;;;;;;;15.25;11.70;;;16.00;99.90;;;;;;5101284;28;20035;-79
2023/06/23 00:46:31;;;;;;;15.20;12.70;;;16.00;99.90;;;;;;5100493;28;20024;-78
2023/06/23 00:48:57;;;;;;;17.70;12.43;;;16.00;99.90;;;;;;5100215;28;20473;-78
2023/06/23 00:51:22;;;;;;;18.33;12.50;;;16.00;99.90;;;;;;5100815;28;20028;-77
2023/06/23 00:53:48;;;;;;;18.98;12.20;;;16.00;99.90;;;;;;5101002;28;20028;-78
2023/06/23 00:56:15;;;;;;;15.55;12.05;;;16.00;99.90;;;;;;5101194;28;20028;-78
2023/06/23 00:58:41;;;;;;;17.73;12.07;;;16.00;99.90;;;;;;5100655;28;20032;-78
2023/06/23 01:01:10;;;;;;;15.13;12.50;;;15.90;99.90;;;;;;5100455;28;20036;-78
2023/06/23 01:03:36;;;;;;;17.98;13.13;;;15.90;99.90;;;;;;5100323;28;20031;-78
2023/06/23 01:06:14;;;;;;;18.13;14.15;;;15.90;99.90;;;;;;5100047;28;20032;-78
2023/06/23 01:08:54;;;;;;;19.02;13.75;;;15.90;99.90;;;;;;5099689;28;20047;-78
2023/06/23 01:11:42;;;;;;;16.25;13.20;;;16.00;99.90;;;;;;5099939;28;20472;-78
2023/06/23 01:14:17;;;;;;;18.00;13.50;;;15.90;99.90;;;;;;5100278;28;20101;-78
2023/06/23 01:16:50;;;;;;;18.85;13.85;;;16.00;99.90;;;;;;5099766;28;20025;-78
2023/06/23 01:19:43;;;;;;;14.95;12.60;;;15.90;99.90;;;;;;5100212;28;20420;-78
2023/06/23 01:25:18;;;;;;;20.55;15.25;;;15.90;99.90;;;;;;5065784;22;20913;-69
2023/06/23 01:28:13;;;;;;;21.90;16.48;;;16.10;99.90;;;;;;5050792;28;20041;-68
2023/06/23 01:30:41;;;;;;;21.25;16.23;;;16.10;99.90;;;;;;5050293;28;20075;-69
2023/06/23 01:33:15;;;;;;;22.88;17.83;;;16.10;99.90;;;;;;5050623;28;20115;-69
2023/06/23 01:35:44;;;;;;;29.40;21.50;;;16.10;99.90;;;;;;5050560;28;20029;-69
2023/06/23 01:38:22;;;;;;;28.38;21.33;;;16.20;99.90;;;;;;5050079;28;20053;-68
2023/06/23 01:40:54;;;;;;;30.80;22.75;;;16.20;99.90;;;;;;5050238;28;20597;-68
2023/06/23 01:43:29;;;;;;;31.70;22.48;;;16.30;99.90;;;;;;5050013;28;20078;-68
2023/06/23 01:45:59;;;;;;;28.75;21.98;;;16.30;99.90;;;;;;5050364;28;20532;-69
2023/06/23 01:48:26;;;;;;;30.48;21.75;;;16.30;99.90;;;;;;5050534;28;20071;-69
2023/06/23 01:50:53;;;;;;;28.05;22.10;;;16.40;99.90;;;;;;5050272;28;20107;-69
2023/06/23 01:53:20;;;;;;;29.10;21.17;;;16.40;99.90;;;;;;5050263;28;20112;-69
2023/06/23 01:55:48;;;;;;;28.27;20.73;;;16.40;99.90;;;;;;5050302;28;20501;-69
2023/06/23 01:58:15;;;;;;;27.50;20.30;;;16.40;99.90;;;;;;5049867;28;20394;-69
2023/06/23 02:00:42;;;;;;;27.30;20.30;;;16.40;99.90;;;;;;5049689;28;20535;-69
2023/06/23 02:03:08;;;;;;;26.67;20.10;;;16.40;99.90;;;;;;5049939;28;20498;-69
2023/06/23 02:05:36;;;;;;;27.52;20.95;;;16.40;99.90;;;;;;5049966;28;20025;-69
2023/06/23 02:08:03;;;;;;;27.17;20.75;;;16.40;99.90;;;;;;5050030;28;20391;-69
2023/06/23 02:10:29;;;;;;;29.40;21.23;;;16.40;99.90;;;;;;5050011;28;20483;-69
2023/06/23 02:12:56;;;;;;;32.58;21.60;;;16.40;99.90;;;;;;5050155;28;20091;-68
2023/06/23 02:15:23;;;;;;;29.33;21.63;;;16.40;99.90;;;;;;5049838;28;20415;-68
2023/06/23 02:17:51;;;;;;;30.23;21.95;;;16.40;99.90;;;;;;5049855;28;20029;-68
2023/06/23 02:20:18;;;;;;;31.92;22.83;;;16.40;99.90;;;;;;5049666;28;20031;-69
2023/06/23 02:22:49;;;;;;;32.70;22.10;;;16.40;99.90;;;;;;5049702;28;20380;-69
2023/06/23 02:25:16;;;;;;;29.33;21.75;;;16.40;99.90;;;;;;5049263;28;20128;-69
2023/06/23 02:27:43;;;;;;;32.22;22.30;;;16.50;99.90;;;;;;5049642;28;20029;-69
2023/06/23 02:30:10;;;;;;;29.98;22.55;;;16.50;99.90;;;;;;5049593;28;20029;-68
2023/06/23 02:32:36;;;;;;;32.28;23.88;;;16.50;99.90;;;;;;5049429;28;20029;-69
2023/06/23 02:35:03;;;;;;;31.98;22.88;;;16.40;99.90;;;;;;5043212;28;20373;-69
2023/06/23 02:37:31;;;;;;;33.70;24.25;;;16.40;99.90;;;;;;5035729;28;20089;-68
2023/06/23 02:40:06;;;;;;;33.80;24.77;;;16.50;99.90;;;;;;5036083;28;20028;-69
2023/06/23 02:42:36;;;;;;;37.58;25.30;;;16.40;99.90;;;;;;5036018;28;20059;-69
2023/06/23 02:45:05;;;;;;;31.63;23.88;;;16.40;99.90;;;;;;5035885;28;20024;-69
2023/06/23 02:47:37;;;;;;;34.53;25.85;;;16.50;99.90;;;;;;5035886;28;20498;-69
2023/06/23 02:50:04;;;;;;;34.78;25.83;;;16.50;99.90;;;;;;5035937;28;20037;-68
2023/06/23 02:52:34;;;;;;;37.33;25.95;;;16.50;99.90;;;;;;5035648;28;20021;-69
2023/06/23 02:55:03;;;;;;;35.83;26.20;;;16.40;99.90;;;;;;5035915;28;20041;-69
2023/06/23 02:57:31;;;;;;;33.97;24.13;;;16.40;99.90;;;;;;5035767;28;20022;-68
2023/06/23 03:00:00;;;;;;;32.03;24.90;;;16.40;99.90;;;;;;5035650;28;20029;-69
2023/06/23 03:02:27;;;;;;;32.50;22.90;;;16.40;99.90;;;;;;5035717;28;20025;-69
2023/06/23 03:04:57;;;;;;;30.70;22.83;;;16.40;99.90;;;;;;5035475;28;20573;-69
2023/06/23 03:07:22;;;;;;;30.20;23.65;;;16.30;99.90;;;;;;5035622;28;20108;-69
2023/06/23 03:09:49;;;;;;;31.27;24.30;;;16.30;99.90;;;;;;5035618;28;20459;-69
2023/06/23 03:12:14;;;;;;;33.63;25.38;;;16.40;99.90;;;;;;5035649;28;20072;-69
2023/06/23 03:14:40;;;;;;;38.30;30.10;;;16.30;99.90;;;;;;5035361;28;20080;-69
2023/06/23 03:17:14;;;;;;;40.15;31.98;;;16.40;99.90;;;;;;5035373;28;20110;-69
2023/06/23 03:19:53;;;;;;;44.55;34.85;;;16.40;99.90;;;;;;5035370;28;20097;-69
2023/06/23 03:22:24;;;;;;;45.20;36.80;;;16.30;99.90;;;;;;5035347;28;20022;-69
2023/06/23 03:24:56;;;;;;;48.95;36.50;;;16.30;99.90;;;;;;5034924;28;20128;-69
2023/06/23 03:27:25;;;;;;;44.45;36.47;;;16.40;99.90;;;;;;5035334;28;20140;-69
2023/06/23 03:29:59;;;;;;;52.42;38.92;;;16.30;99.90;;;;;;5035140;28;20036;-69
2023/06/23 03:32:30;;;;;;;49.22;40.33;;;16.30;99.90;;;;;;5035218;28;20498;-69
2023/06/23 03:35:01;;;;;;;58.10;43.30;;;16.30;99.90;;;;;;5034769;28;20037;-68
2023/06/23 03:37:30;;;;;;;55.75;42.80;;;16.30;99.90;;;;;;5035132;28;20029;-68
2023/06/23 03:40:04;;;;;;;54.05;40.67;;;16.30;99.90;;;;;;5034906;28;20029;-68
2023/06/23 03:42:30;;;;;;;54.30;41.42;;;16.30;99.90;;;;;;5034790;28;20087;-69
2023/06/23 03:45:02;;;;;;;56.45;42.92;;;16.30;99.90;;;;;;5034395;28;20064;-69
2023/06/23 03:47:29;;;;;;;55.50;39.88;;;16.30;99.90;;;;;;5033997;28;20022;-69
2023/06/23 03:50:00;;;;;;;55.78;40.35;;;16.30;99.90;;;;;;5034776;28;20067;-69
2023/06/23 03:52:27;;;;;;;49.53;37.63;;;16.20;99.90;;;;;;5034658;28;20113;-69
2023/06/23 03:54:54;;;;;;;48.88;38.03;;;16.30;99.90;;;;;;5034803;28;20025;-69
2023/06/23 03:57:23;;;;;;;47.15;35.88;;;16.20;99.90;;;;;;5034525;28;20029;-70
2023/06/23 03:59:50;;;;;;;44.25;34.15;;;16.20;99.90;;;;;;5034593;28;20442;-69
2023/06/23 04:02:20;;;;;;;48.10;33.10;;;16.20;99.90;;;;;;5034745;28;20029;-69
2023/06/23 04:04:48;;;;;;;46.08;32.58;;;16.20;99.90;;;;;;5034422;28;20036;-69
2023/06/23 04:07:14;;;;;;;42.42;30.90;;;16.20;99.90;;;;;;5034465;28;20029;-69
2023/06/23 04:09:43;;;;;;;38.10;27.52;;;16.20;99.90;;;;;;5034360;28;20036;-69
2023/06/23 04:12:11;;;;;;;39.03;26.27;;;16.10;99.90;;;;;;5034291;28;20029;-69
2023/06/23 04:14:39;;;;;;;31.60;23.63;;;16.10;99.90;;;;;;5034277;28;20091;-68
2023/06/23 04:17:08;;;;;;;31.13;23.08;;;16.10;99.90;;;;;;5034306;28;20025;-69
2023/06/23 04:19:35;;;;;;;27.38;21.10;;;16.10;99.90;;;;;;5034275;28;20076;-69
2023/06/23 04:22:05;;;;;;;26.80;21.40;;;16.10;99.90;;;;;;5034203;28;20163;-69
2023/06/23 04:24:31;;;;;;;29.75;22.02;;;16.10;99.90;;;;;;5033776;28;20521;-69
2023/06/23 04:26:58;;;;;;;29.00;21.48;;;16.00;99.90;;;;;;5034124;28;20022;-69
2023/06/23 04:29:26;;;;;;;27.10;20.67;;;16.00;99.90;;;;;;5034219;28;20065;-69
2023/06/23 04:31:54;;;;;;;26.50;20.88;;;16.10;99.90;;;;;;5034255;28;20471;-69
2023/06/23 04:34:20;;;;;;;27.38;19.95;;;16.00;99.90;;;;;;5034087;28;20033;-69
2023/06/23 04:36:50;;;;;;;25.73;20.58;;;16.00;99.90;;;;;;5034159;28;20043;-69
2023/06/23 04:39:25;;;;;;;29.17;20.75;;;16.00;99.90;;;;;;5034090;28;20499;-69
2023/06/23 04:41:56;;;;;;;27.55;20.42;;;16.00;99.90;;;;;;5033819;28;20116;-69
2023/06/23 04:44:26;;;;;;;30.95;21.77;;;16.00;99.90;;;;;;5033405;28;20467;-69
2023/06/23 04:46:57;;;;;;;30.50;20.65;;;16.00;99.90;;;;;;5033396;28;20021;-69
2023/06/23 04:49:26;;;;;;;30.50;22.70;;;16.00;99.90;;;;;;5016231;28;20037;-69
2023/06/23 04:51:54;;;;;;;31.08;22.98;;;16.00;99.90;;;;;;5033737;28;20026;-69
2023/06/23 04:54:25;;;;;;;29.88;22.67;;;16.00;99.90;;;;;;5033802;28;20033;-70
2023/06/23 04:57:00;;;;;;;32.92;23.20;;;16.00;99.90;;;;;;5033703;28;20124;-70
2023/06/23 04:59:27;;;;;;;32.97;24.73;;;16.00;99.90;;;;;;5033463;28;20426;-69
2023/06/23 05:01:54;;;;;;;31.42;25.02;;;16.10;99.90;;;;;;5033640;28;20057;-69
2023/06/23 05:04:20;;;;;;;32.40;24.75;;;16.10;99.90;;;;;;5033364;28;20116;-69
2023/06/23 05:06:46;;;;;;;34.10;25.10;;;16.10;99.90;;;;;;5033540;28;20021;-69
2023/06/23 05:09:15;;;;;;;33.70;25.02;;;16.10;99.90;;;;;;5033478;28;20125;-70
2023/06/23 05:11:43;;;;;;;31.15;24.88;;;16.10;99.90;;;;;;5033544;28;20044;-69
2023/06/23 05:14:10;;;;;;;31.05;23.27;;;16.20;99.90;;;;;;5033440;28;20368;-70
2023/06/23 05:16:37;;;;;;;30.00;24.92;;;16.20;99.90;;;;;;5033265;28;20037;-70
2023/06/23 05:19:07;;;;;;;31.08;24.45;;;16.20;99.90;;;;;;5033429;28;20499;-70
2023/06/23 05:21:33;;;;;;;29.95;24.15;;;16.20;99.90;;;;;;5033402;28;20033;-70
2023/06/23 05:24:00;;;;;;;28.73;22.33;;;16.30;99.90;;;;;;5032716;28;20046;-70
2023/06/23 05:26:33;;;;;;;30.23;23.17;;;16.30;99.90;;;;;;5033294;28;20060;-69
2023/06/23 05:29:03;;;;;;;29.00;22.92;;;16.30;99.90;;;;;;5032770;28;20018;-69
2023/06/23 05:31:31;;;;;;;26.92;22.02;;;16.30;99.90;;;;;;5033316;28;20079;-70
2023/06/23 05:33:59;;;;;;;30.38;22.52;;;16.30;99.90;;;;;;5033281;28;20029;-70
2023/06/23 05:36:26;;;;;;;31.65;21.35;;;16.40;99.90;;;;;;5033225;28;20045;-70
2023/06/23 05:38:53;;;;;;;27.58;20.63;;;16.30;99.90;;;;;;5033214;28;20471;-68
2023/06/23 05:41:18;;;;;;;24.42;18.88;;;16.30;99.90;;;;;;5033093;28;20025;-70
2023/06/23 05:43:44;;;;;;;26.45;18.15;;;16.30;99.90;;;;;;5032836;28;20037;-69
2023/06/23 05:46:14;;;;;;;24.92;17.90;;;16.30;99.90;;;;;;5032959;28;20026;-69
2023/06/23 05:48:46;;;;;;;24.55;16.83;;;16.30;99.90;;;;;;5033122;28;20395;-69
2023/06/23 05:51:19;;;;;;;25.95;16.55;;;16.30;99.90;;;;;;5032669;28;20025;-69
2023/06/23 05:53:51;;;;;;;21.23;16.20;;;16.30;99.90;;;;;;5032836;28;20026;-70
2023/06/23 05:56:22;;;;;;;22.02;15.63;;;16.40;99.90;;;;;;5032817;28;20040;-70
2023/06/23 05:58:56;;;;;;;18.23;14.38;;;16.40;99.90;;;;;;5032479;28;20025;-68
2023/06/23 06:01:24;;;;;;;17.05;12.98;;;16.50;99.90;;;;;;5031500;28;20028;-68
2023/06/23 06:04:04;;;;;;;17.00;13.30;;;16.50;99.90;;;;;;5032294;28;20037;-68
2023/06/23 06:06:35;;;;;;;18.08;12.80;;;16.60;99.90;;;;;;5031125;28;20108;-68
2023/06/23 06:09:02;;;;;;;17.50;13.32;;;16.70;99.90;;;;;;5032067;28;20476;-68
2023/06/23 06:11:28;;;;;;;14.95;12.63;;;16.70;99.90;;;;;;5036002;28;20067;-68
2023/06/23 06:13:57;;;;;;;20.50;13.25;;;16.60;99.90;;;;;;5036373;28;20397;-70
2023/06/23 06:16:24;;;;;;;17.40;12.35;;;16.70;99.90;;;;;;5036502;28;20026;-68
2023/06/23 06:18:52;;;;;;;19.70;13.20;;;16.80;99.90;;;;;;5033662;28;20045;-69
2023/06/23 06:21:19;;;;;;;17.02;12.63;;;16.80;99.90;;;;;;5033615;28;20040;-69
2023/06/23 06:23:46;;;;;;;18.75;12.50;;;17.00;99.90;;;;;;5035954;28;20072;-68
2023/06/23 06:26:14;;;;;;;17.13;12.35;;;17.00;99.90;;;;;;5036369;28;20475;-67
2023/06/23 06:28:42;;;;;;;16.40;12.63;;;17.10;99.90;;;;;;5030126;28;20079;-68
2023/06/23 06:31:09;;;;;;;18.27;11.90;;;17.30;99.90;;;;;;5030955;28;20034;-68
2023/06/23 06:33:37;;;;;;;16.50;11.90;;;17.40;99.90;;;;;;5034640;28;20411;-69
2023/06/23 06:36:06;;;;;;;22.80;12.55;;;17.50;99.90;;;;;;5034994;28;20415;-68
2023/06/23 06:38:35;;;;;;;22.88;12.90;;;17.70;99.90;;;;;;5034493;28;20048;-68
2023/06/23 06:41:05;;;;;;;18.45;13.35;;;17.90;99.90;;;;;;5033384;28;20034;-68
2023/06/23 06:43:31;;;;;;;23.10;14.25;;;18.20;99.90;;;;;;5033531;28;20418;-70
2023/06/23 06:46:00;;;;;;;17.27;11.77;;;18.50;99.90;;;;;;5029059;28;20021;-70
2023/06/23 06:48:27;;;;;;;16.90;12.27;;;19.00;99.90;;;;;;5031689;28;20464;-69
2023/06/23 06:50:55;;;;;;;19.33;11.32;;;19.60;99.90;;;;;;5029772;28;20022;-70
2023/06/23 06:53:21;;;;;;;15.38;11.15;;;20.00;79.50;;;;;;5032054;28;20506;-69
2023/06/23 06:55:47;;;;;;;19.02;11.75;;;20.30;48.00;;;;;;5033446;28;20443;-69
2023/06/23 06:58:15;;;;;;;14.18;10.63;;;20.00;44.30;;;;;;5034622;28;20052;-69
2023/06/23 07:00:41;;;;;;;14.32;11.23;;;19.80;45.00;;;;;;5034962;28;20033;-70
2023/06/23 07:03:07;;;;;;;17.38;10.57;;;19.90;50.20;;;;;;5030309;28;20030;-69
2023/06/23 07:05:33;;;;;;;15.48;10.18;;;20.10;46.90;;;;;;5032839;28;20045;-69
2023/06/23 07:07:59;;;;;;;22.17;12.15;;;20.40;42.30;;;;;;5034792;28;20033;-70
2023/06/23 07:10:24;;;;;;;19.70;11.25;;;20.30;27.50;;;;;;5034542;28;20476;-69
2023/06/23 07:12:50;;;;;;;13.98;11.30;;;19.80;27.60;;;;;;5034828;28;20391;-71
2023/06/23 07:15:15;;;;;;;15.48;12.02;;;19.60;63.50;;;;;;5032504;28;20119;-70
2023/06/23 07:17:41;;;;;;;17.73;12.18;;;19.30;72.60;;;;;;5031705;28;20030;-71
2023/06/23 07:20:07;;;;;;;18.05;13.43;;;19.10;94.30;;;;;;5030079;28;20030;-70
2023/06/23 07:22:33;;;;;;;19.95;13.00;;;19.00;99.90;;;;;;5034134;28;20104;-70
2023/06/23 07:24:59;;;;;;;20.95;14.20;;;18.80;99.90;;;;;;5031050;28;20474;-69
2023/06/23 07:27:24;;;;;;;20.80;14.40;;;18.70;99.90;;;;;;5034447;28;20112;-70
2023/06/23 07:29:50;;;;;;;17.92;12.90;;;18.70;99.90;;;;;;5031204;28;20076;-69
2023/06/23 07:32:16;;;;;;;22.40;14.52;;;18.80;99.90;;;;;;5034130;28;20026;-71
2023/06/23 07:34:42;;;;;;;20.15;14.57;;;18.80;99.90;;;;;;5033284;28;20025;-70
2023/06/23 07:37:09;;;;;;;18.23;13.50;;;18.80;99.90;;;;;;5033663;28;20034;-70
2023/06/23 07:39:35;;;;;;;18.95;14.02;;;18.80;99.90;;;;;;5032688;28;20029;-70
2023/06/23 07:42:01;;;;;;;20.90;13.55;;;18.80;99.90;;;;;;5032653;28;20033;-70
2023/06/23 07:44:26;;;;;;;18.77;13.68;;;18.80;99.90;;;;;;5033947;28;20060;-70
2023/06/23 07:46:52;;;;;;;20.40;13.52;;;18.90;99.90;;;;;;5033061;28;20110;-70
2023/06/23 07:49:18;;;;;;;18.20;13.07;;;18.90;99.90;;;;;;5029885;28;20025;-70
2023/06/23 07:51:43;;;;;;;17.35;11.85;;;19.00;99.90;;;;;;5031343;28;20021;-68
2023/06/23 07:54:09;;;;;;;15.52;12.07;;;19.00;99.90;;;;;;5031535;28;20055;-71
2023/06/23 07:56:34;;;;;;;21.98;14.88;;;19.00;99.90;;;;;;5031774;28;20407;-71
2023/06/23 07:59:00;;;;;;;22.60;16.73;;;19.10;91.20;;;;;;5032036;28;20079;-71
2023/06/23 08:01:25;;;;;;;16.40;11.60;;;19.10;81.60;;;;;;5033151;28;20462;-71
2023/06/23 08:03:51;;;;;;;14.55;10.95;;;19.10;93.20;;;;;;5031791;28;20036;-71
2023/06/23 08:06:23;;;;;;;16.20;10.55;;;19.10;75.30;;;;;;5033429;28;20065;-71
2023/06/23 08:08:50;;;;;;;18.98;10.70;;;19.20;78.40;;;;;;5033182;28;20037;-71
2023/06/23 08:11:15;;;;;;;15.05;9.40;;;19.20;81.70;;;;;;5032672;28;20044;-71
2023/06/23 08:13:41;;;;;;;14.43;9.82;;;19.10;81.40;;;;;;5027680;28;20025;-67
2023/06/23 08:16:06;;;;;;;13.15;9.70;;;19.20;75.30;;;;;;5026083;28;20534;-72
2023/06/23 08:18:32;;;;;;;18.25;10.52;;;19.20;77.10;;;;;;5034110;28;20483;-71
2023/06/23 08:20:57;;;;;;;14.70;9.80;;;19.30;79.00;;;;;;5033645;28;20073;-71
2023/06/23 08:23:23;;;;;;;23.08;11.27;;;19.30;72.70;;;;;;5029740;28;20132;-71
2023/06/23 08:25:49;;;;;;;23.63;11.43;;;19.40;51.50;;;;;;5029908;28;20040;-72
2023/06/23 08:28:14;;;;;;;14.40;9.75;;;19.50;62.90;;;;;;5032245;28;20025;-72
2023/06/23 08:30:40;;;;;;;26.50;10.57;;;19.50;49.00;;;;;;5033873;28;20391;-72
2023/06/23 08:33:06;;;;;;;22.15;10.32;;;19.70;42.90;;;;;;5032801;28;20498;-72
2023/06/23 08:35:32;;;;;;;13.10;8.98;;;19.70;34.70;;;;;;5032151;28;20026;-71
2023/06/23 08:37:57;;;;;;;16.73;8.25;;;19.80;29.70;;;;;;5032367;28;20030;-71
2023/06/23 08:40:23;;;;;;;14.98;8.52;;;19.80;33.50;;;;;;5033560;28;20040;-72
2023/06/23 08:42:49;;;;;;;16.02;8.73;;;19.90;15.20;;;;;;5032607;28;20033;-71
2023/06/23 08:45:17;;;;;;;7.85;6.88;;;20.20;1.90;;;;;;5033222;28;20392;-72
2023/06/23 08:47:48;;;;;;;10.93;6.40;;;20.50;1.00;;;;;;5032397;28;20040;-71
2023/06/23 08:50:15;;;;;;;10.15;6.43;;;;;;;;;;5031598;28;20064;-71
2023/06/23 08:52:44;;;;;;;14.15;6.15;;;21.80;1.00;;;;;;5024441;28;20018;-72
2023/06/23 08:55:13;;;;;;;10.23;5.75;;;;;;;;;;5006824;28;20045;-72
2023/06/23 08:57:39;;;;;;;10.93;5.75;;;21.90;1.00;;;;;;5009961;28;20026;-71
2023/06/23 09:00:08;;;;;;;10.27;4.63;;;22.30;1.00;;;;;;5012614;28;20038;-72
2023/06/23 09:02:34;;;;;;;7.72;4.75;;;23.40;99.90;;;;;;5012421;28;20080;-72
2023/06/23 09:04:59;;;;;;;8.70;5.15;;;23.10;99.90;;;;;;5010852;28;20049;-72
2023/06/23 09:07:26;;;;;;;7.63;4.68;;;23.70;1.00;;;;;;5010551;28;20034;-71
2023/06/23 09:09:52;;;;;;;7.10;4.70;;;23.10;99.90;;;;;;5012204;28;20100;-71
2023/06/23 09:12:21;;;;;;;6.65;4.32;;;24.40;99.90;;;;;;5011158;28;20758;-72
2023/06/23 09:14:49;;;;;;;5.22;4.28;;;25.20;1.00;;;;;;5007069;28;20061;-73
2023/06/23 09:17:15;;;;;;;7.05;5.40;;;25.40;1.00;;;;;;5012037;28;20041;-72
2023/06/23 09:19:42;;;;;;;6.90;4.30;;;25.20;99.90;;;;;;5013215;28;20041;-72
2023/06/23 09:22:09;;;;;;;6.97;4.22;;;24.60;10.60;;;;;;5012155;28;20483;-71
2023/06/23 09:24:43;;;;;;;6.25;4.10;;;25.30;1.00;;;;;;5012143;28;20423;-72
2023/06/23 09:27:09;;;;;;;6.78;4.13;;;26.90;99.90;;;;;;5012594;28;20033;-73
2023/06/23 09:29:37;;;;;;;5.80;4.15;;;28.30;99.90;;;;;;5013416;28;20113;-73
2023/06/23 09:32:03;;;;;;;5.82;3.92;;;27.70;61.60;;;;;;5013243;28;20152;-72
2023/06/23 09:34:31;;;;;;;5.90;4.00;;;27.70;99.90;;;;;;4994087;28;20018;-72
2023/06/23 09:37:14;;;;;;;7.00;3.90;;;26.20;99.90;;;;;;5007785;28;20357;-70
2023/06/23 09:39:43;;;;;;;7.47;4.18;;;25.90;1.00;;;;;;5003668;28;20066;-71
2023/06/23 09:42:13;;;;;;;8.13;4.18;;;25.70;99.90;;;;;;5010243;28;20034;-70
2023/06/23 09:44:41;;;;;;;6.75;4.18;;;25.40;99.90;;;;;;5012826;28;20030;-71
2023/06/23 09:47:07;;;;;;;6.97;4.60;;;25.00;1.00;;;;;;5015994;28;20036;-71
2023/06/23 09:49:42;;;;;;;5.75;4.28;;;24.10;99.90;;;;;;5014834;28;20044;-71
2023/06/23 09:52:11;;;;;;;8.85;4.70;;;24.50;99.90;;;;;;5016271;28;20030;-71
2023/06/23 09:54:39;;;;;;;6.82;4.70;;;25.20;99.90;;;;;;5011543;28;20030;-72
2023/06/23 09:57:09;;;;;;;5.47;4.32;;;26.00;11.80;;;;;;5016860;28;20026;-72
2023/06/23 09:59:39;;;;;;;4.85;4.03;;;26.20;1.00;;;;;;5016684;28;20515;-72
2023/06/23 10:02:07;;;;;;;5.20;4.35;;;26.10;99.90;;;;;;5015908;28;20034;-72
2023/06/23 10:04:32;;;;;;;5.07;4.40;;;26.30;1.00;;;;;;5011932;28;20072;-68
2023/06/23 10:07:16;;;;;;;7.53;4.63;;;26.60;99.90;;;;;;5013176;28;20033;-71
2023/06/23 10:09:49;;;;;;;6.20;4.22;;;26.80;99.90;;;;;;5009790;28;20022;-72
2023/06/23 10:12:15;;;;;;;5.68;5.07;;;26.50;99.90;;;;;;5015597;28;20505;-72
2023/06/23 10:14:40;;;;;;;7.85;4.43;;;26.70;99.90;;;;;;5015629;28;20041;-72
2023/06/23 10:17:06;;;;;;;4.97;4.38;;;26.90;99.90;;;;;;5016179;28;20026;-72
2023/06/23 10:19:32;;;;;;;7.13;4.78;;;27.00;99.90;;;;;;5014722;28;20065;-70
2023/06/23 10:21:58;;;;;;;5.07;4.30;;;27.10;1.00;;;;;;5016040;28;20049;-72
2023/06/23 10:24:23;;;;;;;8.82;4.70;;;27.90;7.70;;;;;;5016185;28;20083;-72
2023/06/23 10:26:54;;;;;;;5.80;3.80;;;28.30;1.00;;;;;;5014344;28;20415;-71
2023/06/23 10:29:20;;;;;;;7.00;4.82;;;27.90;1.00;;;;;;5010411;28;20499;-72
2023/06/23 10:31:47;;;;;;;3.90;3.53;;;28.20;1.00;;;;;;5015721;28;20171;-72
2023/06/23 10:34:15;;;;;;;6.57;3.83;;;28.10;1.00;;;;;;4994845;28;20157;-72
2023/06/23 10:36:42;;;;;;;4.57;3.72;;;27.20;1.00;;;;;;5002741;28;20359;-72
2023/06/23 10:39:10;;;;;;;4.68;4.03;;;27.40;1.00;;;;;;5014141;28;20030;-71
2023/06/23 10:41:40;;;;;;;5.55;3.45;;;27.30;1.00;;;;;;5009935;28;20042;-72
2023/06/23 10:44:07;;;;;;;5.38;4.30;;;27.50;1.00;;;;;;5010338;28;20574;-72
2023/06/23 10:46:34;;;;;;;5.55;4.72;;;26.90;1.00;;;;;;5005737;28;20034;-72
2023/06/23 10:49:01;;;;;;;5.40;4.53;;;26.00;93.80;;;;;;5012819;28;20030;-72
2023/06/23 10:51:27;;;;;;;4.95;4.07;;;26.20;99.90;;;;;;5008506;28;20028;-71
2023/06/23 10:53:58;;;;;;;4.93;4.38;;;26.50;78.60;;;;;;5011126;28;20057;-72
2023/06/23 10:56:34;;;;;;;4.45;3.97;;;26.70;31.10;;;;;;5009378;28;20034;-72
2023/06/23 10:59:18;;;;;;;6.35;4.18;;;26.80;96.60;;;;;;5010085;28;20567;-70
2023/06/23 11:02:07;;;;;;;7.95;4.32;;;26.70;17.00;;;;;;4992343;28;20136;-71
2023/06/23 11:04:34;;;;;;;5.53;4.40;;;26.50;21.10;;;;;;5011811;28;20034;-71
2023/06/23 11:07:07;;;;;;;5.88;4.38;;;26.00;32.10;;;;;;5009153;28;20057;-71
2023/06/23 11:10:06;;;;;;;7.40;4.00;;;26.10;61.70;;;;;;5011279;28;20048;-71
2023/06/23 11:15:16;;;;;;;5.55;4.20;;;26.50;99.90;;;;;;5107760;27;20426;-71
2023/06/23 11:17:45;;;;;;;7.18;4.80;;;26.70;99.90;;;;;;5110736;28;20035;-72
2023/06/23 11:20:28;;;;;;;4.70;4.15;;;26.40;59.80;;;;;;5110389;28;20419;-71
2023/06/23 11:23:05;;;;;;;5.00;4.30;;;26.40;99.90;;;;;;5093179;28;20099;-71
2023/06/23 11:25:37;;;;;;;4.90;4.30;;;26.60;99.90;;;;;;5104952;28;20028;-70
2023/06/23 11:28:24;;;;;;;5.13;4.00;;;26.80;99.90;;;;;;5109621;28;20020;-70
2023/06/23 11:31:00;;;;;;;5.45;4.90;;;27.00;99.90;;;;;;5106710;28;20020;-71
2023/06/23 11:33:29;;;;;;;6.18;4.00;;;27.00;99.90;;;;;;5110894;28;20481;-71
2023/06/23 11:35:55;;;;;;;7.38;4.60;;;27.00;99.90;;;;;;5107897;28;20016;-69
2023/06/23 11:38:21;;;;;;;5.43;4.40;;;26.90;98.90;;;;;;5109983;28;20081;-71
2023/06/23 11:40:49;;;;;;;6.70;4.15;;;27.00;99.90;;;;;;5093087;28;20024;-71
2023/06/23 11:43:14;;;;;;;5.70;4.18;;;27.40;41.60;;;;;;5096107;28;20021;-72
2023/06/23 11:45:54;;;;;;;4.97;3.80;;;27.40;29.50;;;;;;5099669;28;20031;-67
2023/06/23 11:48:20;;;;;;;4.82;4.15;;;27.40;1.00;;;;;;5102473;28;20028;-72
2023/06/23 11:50:46;;;;;;;7.15;4.20;;;27.00;54.10;;;;;;5104908;28;20050;-70
2023/06/23 11:53:14;;;;;;;8.13;5.05;;;26.30;49.70;;;;;;5097290;28;20036;-70
2023/06/23 11:55:41;;;;;;;6.28;4.60;;;25.90;99.90;;;;;;5096623;28;20478;-69
2023/06/23 11:58:08;;;;;;;5.88;4.65;;;25.70;99.90;;;;;;5098744;28;20047;-70
2023/06/23 12:00:34;;;;;;;6.72;5.10;;;25.70;99.90;;;;;;5102476;28;20051;-71
2023/06/23 12:02:59;;;;;;;7.00;4.30;;;25.80;99.90;;;;;;5106332;28;20534;-70
2023/06/23 12:05:26;;;;;;;6.05;4.35;;;26.40;99.90;;;;;;5106142;28;20032;-70
2023/06/23 12:07:52;;;;;;;7.45;4.68;;;26.20;73.50;;;;;;5102430;28;20028;-71
2023/06/23 12:10:18;;;;;;;5.25;4.47;;;26.00;36.90;;;;;;5109171;28;20024;-69
2023/06/23 12:12:46;;;;;;;5.38;4.43;;;26.10;99.90;;;;;;5105180;28;20377;-71
2023/06/23 12:15:12;;;;;;;5.15;4.18;;;25.80;99.90;;;;;;5106114;28;20024;-72
2023/06/23 12:17:41;;;;;;;4.90;4.45;;;26.40;99.90;;;;;;5108624;28;20036;-72
2023/06/23 12:20:08;;;;;;;5.22;4.18;;;26.50;99.90;;;;;;5108650;28;20034;-72
2023/06/23 12:22:36;;;;;;;4.18;3.78;;;26.80;99.90;;;;;;5107919;28;20493;-71
2023/06/23 12:25:04;;;;;;;5.97;3.95;;;26.90;1.00;;;;;;5099415;28;20076;-72
2023/06/23 12:27:30;;;;;;;6.72;4.80;;;26.90;1.00;;;;;;5088644;28;20029;-71
2023/06/23 12:29:55;;;;;;;6.65;4.32;;;26.60;20.80;;;;;;5076939;28;20046;-71
2023/06/23 12:32:28;;;;;;;4.97;4.30;;;26.70;99.90;;;;;;5074969;28;20609;-70
2023/06/23 12:34:56;;;;;;;6.30;3.85;;;26.80;99.90;;;;;;5075097;28;20109;-71
2023/06/23 12:37:22;;;;;;;6.40;4.65;;;26.70;91.30;;;;;;5075789;28;20029;-71
2023/06/23 12:39:52;;;;;;;5.13;3.95;;;26.90;70.90;;;;;;5075600;28;20389;-72
2023/06/23 12:42:19;;;;;;;4.60;4.07;;;27.30;42.30;;;;;;5075371;28;20025;-69
2023/06/23 12:44:45;;;;;;;7.90;4.50;;;26.40;1.00;;;;;;5075265;28;20082;-69
2023/06/23 12:47:11;;;;;;;9.05;4.90;;;26.10;12.10;;;;;;5075477;28;20032;-70